sensor_id;sensor_type;location;lat;lon;timestamp;temperature;humidity
18047;DHT22;9148;51.454;13.862;2023-08-06T00:00:17;15.80;99.90
18047;DHT22;9148;51.454;13.862;2023-08-06T00:02:43;15.80;99.90
18047;DHT22;9148;51.454;13.862;2023-08-06T00:05:08;15.70;99.90
18047;DHT22;9148;51.454;13.862;2023-08-06T00:07:34;15.70;99.90
18047;DHT22;9148;51.454;13.862;2023-08-06T00:10:00;15.70;99.90
18047;DHT22;9148;51.454;13.862;2023-08-06T00:12:25;15.70;99.90
18047;DHT22;9148;51.454;13.862;2023-08-06T00:14:52;15.60;99.90
18047;DHT22;9148;51.454;13.862;2023-08-06T00:17:18;15.60;99.90
18047;DHT22;9148;51.454;13.862;2023-08-06T00:19:44;15.60;99.90
18047;DHT22;9148;51.454;13.862;2023-08-06T00:22:10;15.60;99.90
18047;DHT22;9148;51.454;13.862;2023-08-06T00:24:36;15.60;99.90
18047;DHT22;9148;51.454;13.862;2023-08-06T00:27:02;15.50;99.90
18047;DHT22;9148;51.454;13.862;2023-08-06T00:29:28;15.50;99.90
18047;DHT22;9148;51.454;13.862;2023-08-06T00:31:54;15.50;99.90
18047;DHT22;9148;51.454;13.862;2023-08-06T00:34:20;15.50;99.90
18047;DHT22;9148;51.454;13.862;2023-08-06T00:36:45;15.50;99.90
18047;DHT22;9148;51.454;13.862;2023-08-06T00:39:11;15.50;99.90
18047;DHT22;9148;51.454;13.862;2023-08-06T00:41:37;15.50;99.90
18047;DHT22;9148;51.454;13.862;2023-08-06T00:44:03;15.50;99.90
18047;DHT22;9148;51.454;13.862;2023-08-06T00:46:29;15.50;99.90
18047;DHT22;9148;51.454;13.862;2023-08-06T00:48:55;15.50;99.90
18047;DHT22;9148;51.454;13.862;2023-08-06T00:51:22;15.50;99.90
18047;DHT22;9148;51.454;13.862;2023-08-06T00:53:50;15.50;99.90
18047;DHT22;9148;51.454;13.862;2023-08-06T00:56:15;15.40;99.90
18047;DHT22;9148;51.454;13.862;2023-08-06T00:58:41;15.40;99.90
18047;DHT22;9148;51.454;13.862;2023-08-06T01:01:07;15.40;99.90
18047;DHT22;9148;51.454;13.862;2023-08-06T01:03:33;15.40;99.90
18047;DHT22;9148;51.454;13.862;2023-08-06T01:05:59;15.40;99.90
18047;DHT22;9148;51.454;13.862;2023-08-06T01:08:30;15.40;99.90
18047;DHT22;9148;51.454;13.862;2023-08-06T01:14:23;15.40;99.90
18047;DHT22;9148;51.454;13.862;2023-08-06T01:17:24;15.40;99.90
18047;DHT22;9148;51.454;13.862;2023-08-06T01:19:52;15.30;99.90
18047;DHT22;9148;51.454;13.862;2023-08-06T01:22:18;15.30;99.90
18047;DHT22;9148;51.454;13.862;2023-08-06T01:24:47;15.30;99.90
18047;DHT22;9148;51.454;13.862;2023-08-06T01:30:42;15.30;99.90
18047;DHT22;9148;51.454;13.862;2023-08-06T01:32:50;15.30;99.90
18047;DHT22;9148;51.454;13.862;2023-08-06T01:35:19;15.30;99.90
18047;DHT22;9148;51.454;13.862;2023-08-06T01:37:46;15.30;99.90
18047;DHT22;9148;51.454;13.862;2023-08-06T01:40:13;15.30;99.90
18047;DHT22;9148;51.454;13.862;2023-08-06T01:42:39;15.40;99.90
18047;DHT22;9148;51.454;13.862;2023-08-06T01:45:07;15.40;99.90
18047;DHT22;9148;51.454;13.862;2023-08-06T01:47:33;15.40;99.90
18047;DHT22;9148;51.454;13.862;2023-08-06T01:49:58;15.40;99.90
18047;DHT22;9148;51.454;13.862;2023-08-06T01:52:24;15.40;99.90
18047;DHT22;9148;51.454;13.862;2023-08-06T01:54:50;15.40;99.90
18047;DHT22;9148;51.454;13.862;2023-08-06T01:57:15;15.40;99.90
18047;DHT22;9148;51.454;13.862;2023-08-06T01:59:41;15.40;99.90
18047;DHT22;9148;51.454;13.862;2023-08-06T02:02:07;15.50;99.90
18047;DHT22;9148;51.454;13.862;2023-08-06T02:04:32;15.50;99.90
18047;DHT22;9148;51.454;13.862;2023-08-06T02:06:58;15.50;99.90
18047;DHT22;9148;51.454;13.862;2023-08-06T02:09:24;15.50;99.90
18047;DHT22;9148;51.454;13.862;2023-08-06T02:11:49;15.50;99.90
18047;DHT22;9148;51.454;13.862;2023-08-06T02:14:15;15.50;99.90
18047;DHT22;9148;51.454;13.862;2023-08-06T02:16:41;15.50;99.90
18047;DHT22;9148;51.454;13.862;2023-08-06T02:19:06;15.50;99.90
18047;DHT22;9148;51.454;13.862;2023-08-06T02:21:32;15.50;99.90
18047;DHT22;9148;51.454;13.862;2023-08-06T02:23:58;15.50;99.90
18047;DHT22;9148;51.454;13.862;2023-08-06T02:26:23;15.50;99.90
18047;DHT22;9148;51.454;13.862;2023-08-06T02:28:49;15.50;99.90
18047;DHT22;9148;51.454;13.862;2023-08-06T02:31:14;15.50;99.90
18047;DHT22;9148;51.454;13.862;2023-08-06T02:33:40;15.60;99.90
18047;DHT22;9148;51.454;13.862;2023-08-06T02:36:06;15.70;99.90
18047;DHT22;9148;51.454;13.862;2023-08-06T02:38:35;15.60;99.90
18047;DHT22;9148;51.454;13.862;2023-08-06T02:41:03;15.60;99.90
18047;DHT22;9148;51.454;13.862;2023-08-06T02:43:29;15.70;99.90
18047;DHT22;9148;51.454;13.862;2023-08-06T02:45:59;15.70;99.90
18047;DHT22;9148;51.454;13.862;2023-08-06T02:48:25;15.70;99.90
18047;DHT22;9148;51.454;13.862;2023-08-06T02:50:51;15.70;99.90
18047;DHT22;9148;51.454;13.862;2023-08-06T02:53:17;15.70;99.90
18047;DHT22;9148;51.454;13.862;2023-08-06T02:55:52;15.70;99.90
18047;DHT22;9148;51.454;13.862;2023-08-06T02:58:17;15.70;99.90
18047;DHT22;9148;51.454;13.862;2023-08-06T03:00:59;15.70;99.90
18047;DHT22;9148;51.454;13.862;2023-08-06T03:03:26;15.80;99.90
18047;DHT22;9148;51.454;13.862;2023-08-06T03:05:53;15.80;99.90
18047;DHT22;9148;51.454;13.862;2023-08-06T03:08:19;15.80;99.90
18047;DHT22;9148;51.454;13.862;2023-08-06T03:10:48;15.80;99.90
18047;DHT22;9148;51.454;13.862;2023-08-06T03:13:15;15.80;99.90
18047;DHT22;9148;51.454;13.862;2023-08-06T03:15:41;15.80;99.90
18047;DHT22;9148;51.454;13.862;2023-08-06T03:18:07;15.80;99.90
18047;DHT22;9148;51.454;13.862;2023-08-06T03:20:32;15.70;99.90
18047;DHT22;9148;51.454;13.862;2023-08-06T03:22:58;15.70;99.90
18047;DHT22;9148;51.454;13.862;2023-08-06T03:25:24;15.70;99.90
18047;DHT22;9148;51.454;13.862;2023-08-06T03:27:49;15.70;99.90
18047;DHT22;9148;51.454;13.862;2023-08-06T03:30:15;15.60;99.90
18047;DHT22;9148;51.454;13.862;2023-08-06T03:32:41;15.70;99.90
18047;DHT22;9148;51.454;13.862;2023-08-06T03:35:07;15.60;99.90
18047;DHT22;9148;51.454;13.862;2023-08-06T03:37:32;15.60;99.90
18047;DHT22;9148;51.454;13.862;2023-08-06T03:39:58;15.60;99.90
18047;DHT22;9148;51.454;13.862;2023-08-06T03:42:24;15.60;99.90
18047;DHT22;9148;51.454;13.862;2023-08-06T03:44:49;15.60;99.90
18047;DHT22;9148;51.454;13.862;2023-08-06T03:47:15;15.60;99.90
18047;DHT22;9148;51.454;13.862;2023-08-06T03:49:41;15.60;99.90
18047;DHT22;9148;51.454;13.862;2023-08-06T03:52:07;15.60;99.90
18047;DHT22;9148;51.454;13.862;2023-08-06T03:54:32;15.60;99.90
18047;DHT22;9148;51.454;13.862;2023-08-06T03:56:58;15.70;99.90
18047;DHT22;9148;51.454;13.862;2023-08-06T03:59:24;15.70;99.90
18047;DHT22;9148;51.454;13.862;2023-08-06T04:01:49;15.60;99.90
18047;DHT22;9148;51.454;13.862;2023-08-06T04:04:15;15.60;99.90
18047;DHT22;9148;51.454;13.862;2023-08-06T04:06:41;15.60;99.90
18047;DHT22;9148;51.454;13.862;2023-08-06T04:09:06;15.70;99.90
18047;DHT22;9148;51.454;13.862;2023-08-06T04:11:32;15.60;99.90
18047;DHT22;9148;51.454;13.862;2023-08-06T04:13:57;15.60;99.90
18047;DHT22;9148;51.454;13.862;2023-08-06T04:16:23;15.70;99.90
18047;DHT22;9148;51.454;13.862;2023-08-06T04:18:49;15.70;99.90
18047;DHT22;9148;51.454;13.862;2023-08-06T04:21:14;15.70;99.90
18047;DHT22;9148;51.454;13.862;2023-08-06T04:23:40;15.70;99.90
18047;DHT22;9148;51.454;13.862;2023-08-06T04:26:06;15.70;99.90
18047;DHT22;9148;51.454;13.862;2023-08-06T04:28:31;15.70;99.90
18047;DHT22;9148;51.454;13.862;2023-08-06T04:30:59;15.70;99.90
18047;DHT22;9148;51.454;13.862;2023-08-06T04:33:35;15.70;99.90
18047;DHT22;9148;51.454;13.862;2023-08-06T04:36:00;15.80;99.90
18047;DHT22;9148;51.454;13.862;2023-08-06T04:38:26;15.80;99.90
18047;DHT22;9148;51.454;13.862;2023-08-06T04:40:52;15.70;99.90
18047;DHT22;9148;51.454;13.862;2023-08-06T04:43:18;15.80;99.90
18047;DHT22;9148;51.454;13.862;2023-08-06T04:45:51;15.80;99.90
18047;DHT22;9148;51.454;13.862;2023-08-06T04:48:19;15.80;99.90
18047;DHT22;9148;51.454;13.862;2023-08-06T04:50:48;15.80;99.90
18047;DHT22;9148;51.454;13.862;2023-08-06T04:53:15;15.70;99.90
18047;DHT22;9148;51.454;13.862;2023-08-06T04:55:53;15.70;99.90
18047;DHT22;9148;51.454;13.862;2023-08-06T04:58:19;15.70;99.90
18047;DHT22;9148;51.454;13.862;2023-08-06T05:00:44;15.80;99.90
18047;DHT22;9148;51.454;13.862;2023-08-06T05:03:10;15.80;99.90
18047;DHT22;9148;51.454;13.862;2023-08-06T05:05:36;15.80;99.90
18047;DHT22;9148;51.454;13.862;2023-08-06T05:08:01;15.80;99.90
18047;DHT22;9148;51.454;13.862;2023-08-06T05:10:27;15.80;99.90
18047;DHT22;9148;51.454;13.862;2023-08-06T05:12:53;15.80;99.90
18047;DHT22;9148;51.454;13.862;2023-08-06T05:15:19;15.80;99.90
18047;DHT22;9148;51.454;13.862;2023-08-06T05:17:45;15.80;99.90
18047;DHT22;9148;51.454;13.862;2023-08-06T05:20:11;15.80;99.90
18047;DHT22;9148;51.454;13.862;2023-08-06T05:22:37;15.90;99.90
18047;DHT22;9148;51.454;13.862;2023-08-06T05:25:02;15.90;99.90
18047;DHT22;9148;51.454;13.862;2023-08-06T05:27:28;15.90;99.90
18047;DHT22;9148;51.454;13.862;2023-08-06T05:29:57;15.90;99.90
18047;DHT22;9148;51.454;13.862;2023-08-06T05:32:23;15.90;99.90
18047;DHT22;9148;51.454;13.862;2023-08-06T05:34:48;15.90;99.90
18047;DHT22;9148;51.454;13.862;2023-08-06T05:37:14;16.00;99.90
18047;DHT22;9148;51.454;13.862;2023-08-06T05:39:40;15.90;99.90
18047;DHT22;9148;51.454;13.862;2023-08-06T05:42:06;16.00;99.90
18047;DHT22;9148;51.454;13.862;2023-08-06T05:44:32;16.00;99.90
18047;DHT22;9148;51.454;13.862;2023-08-06T05:46:57;16.00;99.90
18047;DHT22;9148;51.454;13.862;2023-08-06T05:49:23;16.00;99.90
18047;DHT22;9148;51.454;13.862;2023-08-06T05:51:48;16.00;99.90
18047;DHT22;9148;51.454;13.862;2023-08-06T05:54:14;16.00;99.90
18047;DHT22;9148;51.454;13.862;2023-08-06T05:56:40;16.00;99.90
18047;DHT22;9148;51.454;13.862;2023-08-06T05:59:05;16.00;99.90
18047;DHT22;9148;51.454;13.862;2023-08-06T06:01:31;16.10;99.90
18047;DHT22;9148;51.454;13.862;2023-08-06T06:03:57;16.10;99.90
18047;DHT22;9148;51.454;13.862;2023-08-06T06:06:23;16.10;99.90
18047;DHT22;9148;51.454;13.862;2023-08-06T06:08:48;16.10;99.90
18047;DHT22;9148;51.454;13.862;2023-08-06T06:11:14;16.10;99.90
18047;DHT22;9148;51.454;13.862;2023-08-06T06:13:40;16.10;99.90
18047;DHT22;9148;51.454;13.862;2023-08-06T06:16:05;16.10;99.90
18047;DHT22;9148;51.454;13.862;2023-08-06T06:18:31;16.10;99.90
18047;DHT22;9148;51.454;13.862;2023-08-06T06:20:57;16.10;99.90
18047;DHT22;9148;51.454;13.862;2023-08-06T06:23:22;16.10;99.90
18047;DHT22;9148;51.454;13.862;2023-08-06T06:25:51;16.20;99.90
18047;DHT22;9148;51.454;13.862;2023-08-06T06:28:18;16.20;99.90
18047;DHT22;9148;51.454;13.862;2023-08-06T06:30:43;16.20;99.90
18047;DHT22;9148;51.454;13.862;2023-08-06T06:33:09;16.20;99.90
18047;DHT22;9148;51.454;13.862;2023-08-06T06:35:35;16.20;99.90
18047;DHT22;9148;51.454;13.862;2023-08-06T06:38:01;16.20;99.90
18047;DHT22;9148;51.454;13.862;2023-08-06T06:40:27;16.20;99.90
18047;DHT22;9148;51.454;13.862;2023-08-06T06:42:53;16.30;99.90
18047;DHT22;9148;51.454;13.862;2023-08-06T06:45:19;16.30;99.90
18047;DHT22;9148;51.454;13.862;2023-08-06T06:47:44;16.30;99.90
18047;DHT22;9148;51.454;13.862;2023-08-06T06:50:10;16.30;99.90
18047;DHT22;9148;51.454;13.862;2023-08-06T06:52:36;16.30;99.90
18047;DHT22;9148;51.454;13.862;2023-08-06T06:55:02;16.30;99.90
18047;DHT22;9148;51.454;13.862;2023-08-06T06:57:27;16.30;99.90
18047;DHT22;9148;51.454;13.862;2023-08-06T06:59:53;16.30;99.90
18047;DHT22;9148;51.454;13.862;2023-08-06T07:02:19;16.30;99.90
18047;DHT22;9148;51.454;13.862;2023-08-06T07:04:44;16.40;99.90
18047;DHT22;9148;51.454;13.862;2023-08-06T07:07:10;16.40;99.90
18047;DHT22;9148;51.454;13.862;2023-08-06T07:09:36;16.40;99.90
18047;DHT22;9148;51.454;13.862;2023-08-06T07:12:05;16.40;99.90
18047;DHT22;9148;51.454;13.862;2023-08-06T07:14:31;16.40;99.90
18047;DHT22;9148;51.454;13.862;2023-08-06T07:16:56;16.50;99.90
18047;DHT22;9148;51.454;13.862;2023-08-06T07:19:23;16.50;99.90
18047;DHT22;9148;51.454;13.862;2023-08-06T07:21:49;16.50;99.90
18047;DHT22;9148;51.454;13.862;2023-08-06T07:24:14;16.50;99.90
18047;DHT22;9148;51.454;13.862;2023-08-06T07:26:52;16.50;99.90
18047;DHT22;9148;51.454;13.862;2023-08-06T07:29:18;16.60;99.90
18047;DHT22;9148;51.454;13.862;2023-08-06T07:31:49;16.60;99.90
18047;DHT22;9148;51.454;13.862;2023-08-06T07:34:15;16.60;99.90
18047;DHT22;9148;51.454;13.862;2023-08-06T07:36:44;16.60;99.90
18047;DHT22;9148;51.454;13.862;2023-08-06T07:39:10;16.60;99.90
18047;DHT22;9148;51.454;13.862;2023-08-06T07:41:36;16.60;99.90
18047;DHT22;9148;51.454;13.862;2023-08-06T07:44:02;16.60;99.90
18047;DHT22;9148;51.454;13.862;2023-08-06T07:46:27;16.60;99.90
18047;DHT22;9148;51.454;13.862;2023-08-06T07:48:53;16.60;99.90
18047;DHT22;9148;51.454;13.862;2023-08-06T07:51:19;16.60;99.90
18047;DHT22;9148;51.454;13.862;2023-08-06T07:53:45;16.60;99.90
18047;DHT22;9148;51.454;13.862;2023-08-06T07:56:11;16.70;99.90
18047;DHT22;9148;51.454;13.862;2023-08-06T07:58:36;16.70;99.90
18047;DHT22;9148;51.454;13.862;2023-08-06T08:01:02;16.70;99.90
18047;DHT22;9148;51.454;13.862;2023-08-06T08:03:28;16.80;99.90
18047;DHT22;9148;51.454;13.862;2023-08-06T08:05:55;16.80;99.90
18047;DHT22;9148;51.454;13.862;2023-08-06T08:08:23;16.90;99.90
18047;DHT22;9148;51.454;13.862;2023-08-06T08:10:49;16.90;99.90
18047;DHT22;9148;51.454;13.862;2023-08-06T08:13:14;17.00;99.90
18047;DHT22;9148;51.454;13.862;2023-08-06T08:15:40;17.00;99.90
18047;DHT22;9148;51.454;13.862;2023-08-06T08:18:06;17.00;99.90
18047;DHT22;9148;51.454;13.862;2023-08-06T08:20:31;17.10;99.90
18047;DHT22;9148;51.454;13.862;2023-08-06T08:22:59;17.10;99.90
18047;DHT22;9148;51.454;13.862;2023-08-06T08:25:25;17.20;99.90
18047;DHT22;9148;51.454;13.862;2023-08-06T08:27:52;17.30;99.90
18047;DHT22;9148;51.454;13.862;2023-08-06T08:30:19;17.30;99.90
18047;DHT22;9148;51.454;13.862;2023-08-06T08:32:44;17.40;99.90
18047;DHT22;9148;51.454;13.862;2023-08-06T08:35:10;17.40;99.90
18047;DHT22;9148;51.454;13.862;2023-08-06T08:37:38;17.40;99.90
18047;DHT22;9148;51.454;13.862;2023-08-06T08:40:08;17.40;99.90
18047;DHT22;9148;51.454;13.862;2023-08-06T08:42:34;17.40;99.90
18047;DHT22;9148;51.454;13.862;2023-08-06T08:45:02;17.50;99.90
18047;DHT22;9148;51.454;13.862;2023-08-06T08:47:33;17.50;99.90
18047;DHT22;9148;51.454;13.862;2023-08-06T08:49:59;17.50;99.90
18047;DHT22;9148;51.454;13.862;2023-08-06T08:52:26;17.50;99.90
18047;DHT22;9148;51.454;13.862;2023-08-06T08:54:55;17.50;99.90
18047;DHT22;9148;51.454;13.862;2023-08-06T08:57:21;17.60;99.90
18047;DHT22;9148;51.454;13.862;2023-08-06T08:59:47;17.60;99.90
18047;DHT22;9148;51.454;13.862;2023-08-06T09:02:14;17.60;99.90
18047;DHT22;9148;51.454;13.862;2023-08-06T09:04:41;17.60;99.90
18047;DHT22;9148;51.454;13.862;2023-08-06T09:07:08;17.70;99.90
18047;DHT22;9148;51.454;13.862;2023-08-06T09:09:35;17.70;99.90
18047;DHT22;9148;51.454;13.862;2023-08-06T09:12:12;17.80;99.90
18047;DHT22;9148;51.454;13.862;2023-08-06T09:14:39;17.80;99.90
18047;DHT22;9148;51.454;13.862;2023-08-06T09:17:05;17.80;99.90
18047;DHT22;9148;51.454;13.862;2023-08-06T09:19:47;17.80;99.90
18047;DHT22;9148;51.454;13.862;2023-08-06T09:22:14;17.80;99.90
18047;DHT22;9148;51.454;13.862;2023-08-06T09:24:43;17.90;99.90
18047;DHT22;9148;51.454;13.862;2023-08-06T09:27:13;17.90;99.90
18047;DHT22;9148;51.454;13.862;2023-08-06T09:29:43;18.00;99.90
18047;DHT22;9148;51.454;13.862;2023-08-06T09:32:10;18.00;99.90
18047;DHT22;9148;51.454;13.862;2023-08-06T09:34:39;17.90;99.90
18047;DHT22;9148;51.454;13.862;2023-08-06T09:37:08;18.00;99.90
18047;DHT22;9148;51.454;13.862;2023-08-06T09:39:35;18.10;99.90
18047;DHT22;9148;51.454;13.862;2023-08-06T09:42:02;18.10;99.90
18047;DHT22;9148;51.454;13.862;2023-08-06T09:44:31;18.10;99.90
18047;DHT22;9148;51.454;13.862;2023-08-06T09:46:59;18.20;99.90
18047;DHT22;9148;51.454;13.862;2023-08-06T09:49:27;18.30;99.90
18047;DHT22;9148;51.454;13.862;2023-08-06T09:51:54;18.40;99.90
18047;DHT22;9148;51.454;13.862;2023-08-06T09:54:24;18.40;99.90
18047;DHT22;9148;51.454;13.862;2023-08-06T09:56:52;18.50;99.90
18047;DHT22;9148;51.454;13.862;2023-08-06T09:59:18;18.50;99.90
18047;DHT22;9148;51.454;13.862;2023-08-06T10:01:45;18.50;99.90
18047;DHT22;9148;51.454;13.862;2023-08-06T10:04:13;18.60;99.90
18047;DHT22;9148;51.454;13.862;2023-08-06T10:06:42;18.60;99.90
18047;DHT22;9148;51.454;13.862;2023-08-06T10:09:08;18.60;99.90
18047;DHT22;9148;51.454;13.862;2023-08-06T10:11:36;18.50;99.90
18047;DHT22;9148;51.454;13.862;2023-08-06T10:14:12;18.60;99.90
18047;DHT22;9148;51.454;13.862;2023-08-06T10:16:42;18.60;99.90
18047;DHT22;9148;51.454;13.862;2023-08-06T10:19:12;18.70;99.90
18047;DHT22;9148;51.454;13.862;2023-08-06T10:21:38;18.80;99.90
18047;DHT22;9148;51.454;13.862;2023-08-06T10:24:07;18.90;99.90
18047;DHT22;9148;51.454;13.862;2023-08-06T10:26:36;18.80;99.90
18047;DHT22;9148;51.454;13.862;2023-08-06T10:29:35;18.80;99.90
18047;DHT22;9148;51.454;13.862;2023-08-06T10:32:04;18.80;99.90
18047;DHT22;9148;51.454;13.862;2023-08-06T10:34:58;18.80;99.90
18047;DHT22;9148;51.454;13.862;2023-08-06T10:37:38;18.80;99.90
18047;DHT22;9148;51.454;13.862;2023-08-06T10:40:06;18.90;99.90
18047;DHT22;9148;51.454;13.862;2023-08-06T10:42:33;18.90;99.90
18047;DHT22;9148;51.454;13.862;2023-08-06T10:45:12;18.90;99.90
18047;DHT22;9148;51.454;13.862;2023-08-06T10:47:45;18.90;99.90
18047;DHT22;9148;51.454;13.862;2023-08-06T10:50:16;18.90;99.90
18047;DHT22;9148;51.454;13.862;2023-08-06T10:52:46;19.00;99.90
18047;DHT22;9148;51.454;13.862;2023-08-06T10:55:22;19.00;99.90
18047;DHT22;9148;51.454;13.862;2023-08-06T10:57:52;18.90;99.90
18047;DHT22;9148;51.454;13.862;2023-08-06T11:00:18;18.90;99.90
18047;DHT22;9148;51.454;13.862;2023-08-06T11:02:47;18.90;99.90
18047;DHT22;9148;51.454;13.862;2023-08-06T11:05:14;18.90;99.90
18047;DHT22;9148;51.454;13.862;2023-08-06T11:07:40;18.60;99.90
18047;DHT22;9148;51.454;13.862;2023-08-06T11:10:08;18.80;99.90
18047;DHT22;9148;51.454;13.862;2023-08-06T11:12:35;18.80;99.90
18047;DHT22;9148;51.454;13.862;2023-08-06T11:15:02;18.80;99.90
18047;DHT22;9148;51.454;13.862;2023-08-06T11:17:30;18.90;99.90
18047;DHT22;9148;51.454;13.862;2023-08-06T11:19:59;19.00;99.90
18047;DHT22;9148;51.454;13.862;2023-08-06T11:22:26;19.00;99.90
18047;DHT22;9148;51.454;13.862;2023-08-06T11:24:53;19.10;99.90
18047;DHT22;9148;51.454;13.862;2023-08-06T11:27:25;19.10;99.90
18047;DHT22;9148;51.454;13.862;2023-08-06T11:29:52;19.10;99.90
18047;DHT22;9148;51.454;13.862;2023-08-06T11:32:18;19.10;99.90
18047;DHT22;9148;51.454;13.862;2023-08-06T11:34:43;19.20;99.90
18047;DHT22;9148;51.454;13.862;2023-08-06T11:37:09;19.20;99.90
18047;DHT22;9148;51.454;13.862;2023-08-06T11:39:37;19.20;99.90
18047;DHT22;9148;51.454;13.862;2023-08-06T11:42:05;19.30;99.90
18047;DHT22;9148;51.454;13.862;2023-08-06T11:44:35;19.60;99.90
18047;DHT22;9148;51.454;13.862;2023-08-06T11:47:02;19.50;99.90
18047;DHT22;9148;51.454;13.862;2023-08-06T11:49:40;19.60;99.90
18047;DHT22;9148;51.454;13.862;2023-08-06T11:52:23;19.50;99.90
18047;DHT22;9148;51.454;13.862;2023-08-06T11:55:05;19.50;99.90
18047;DHT22;9148;51.454;13.862;2023-08-06T11:57:34;19.50;99.90
18047;DHT22;9148;51.454;13.862;2023-08-06T12:00:04;19.50;99.90
18047;DHT22;9148;51.454;13.862;2023-08-06T12:02:32;19.50;99.90
18047;DHT22;9148;51.454;13.862;2023-08-06T12:05:03;19.50;99.90
18047;DHT22;9148;51.454;13.862;2023-08-06T12:07:32;19.60;99.90
18047;DHT22;9148;51.454;13.862;2023-08-06T12:09:58;19.50;99.90
18047;DHT22;9148;51.454;13.862;2023-08-06T12:12:24;19.50;99.90
18047;DHT22;9148;51.454;13.862;2023-08-06T12:14:50;19.30;99.90
18047;DHT22;9148;51.454;13.862;2023-08-06T12:17:16;19.20;99.90
18047;DHT22;9148;51.454;13.862;2023-08-06T12:19:41;19.10;99.90
18047;DHT22;9148;51.454;13.862;2023-08-06T12:22:07;19.10;99.90
18047;DHT22;9148;51.454;13.862;2023-08-06T12:24:33;19.00;99.90
18047;DHT22;9148;51.454;13.862;2023-08-06T12:26:59;18.90;99.90
18047;DHT22;9148;51.454;13.862;2023-08-06T12:29:25;18.90;99.90
18047;DHT22;9148;51.454;13.862;2023-08-06T12:31:51;18.80;99.90
18047;DHT22;9148;51.454;13.862;2023-08-06T12:34:17;18.90;99.90
18047;DHT22;9148;51.454;13.862;2023-08-06T12:36:42;18.90;99.90
18047;DHT22;9148;51.454;13.862;2023-08-06T12:39:08;19.00;99.90
18047;DHT22;9148;51.454;13.862;2023-08-06T12:41:34;19.00;99.90
18047;DHT22;9148;51.454;13.862;2023-08-06T12:44:00;19.00;99.90
18047;DHT22;9148;51.454;13.862;2023-08-06T12:46:25;19.00;99.90
18047;DHT22;9148;51.454;13.862;2023-08-06T12:48:51;19.00;99.90
18047;DHT22;9148;51.454;13.862;2023-08-06T12:51:17;19.00;99.90
18047;DHT22;9148;51.454;13.862;2023-08-06T12:53:42;18.90;99.90
18047;DHT22;9148;51.454;13.862;2023-08-06T12:56:08;18.90;99.90
18047;DHT22;9148;51.454;13.862;2023-08-06T12:58:34;19.00;99.90
18047;DHT22;9148;51.454;13.862;2023-08-06T13:01:02;19.00;99.90
18047;DHT22;9148;51.454;13.862;2023-08-06T13:03:28;19.00;99.90
18047;DHT22;9148;51.454;13.862;2023-08-06T13:05:53;19.00;99.90
18047;DHT22;9148;51.454;13.862;2023-08-06T13:08:19;19.00;99.90
18047;DHT22;9148;51.454;13.862;2023-08-06T13:10:45;19.00;99.90
18047;DHT22;9148;51.454;13.862;2023-08-06T13:13:10;18.80;99.90
18047;DHT22;9148;51.454;13.862;2023-08-06T13:15:36;18.90;99.90
18047;DHT22;9148;51.454;13.862;2023-08-06T13:18:02;18.90;99.90
18047;DHT22;9148;51.454;13.862;2023-08-06T13:20:30;18.90;99.90
18047;DHT22;9148;51.454;13.862;2023-08-06T13:22:57;18.90;99.90
18047;DHT22;9148;51.454;13.862;2023-08-06T13:25:23;18.90;99.90
18047;DHT22;9148;51.454;13.862;2023-08-06T13:27:50;18.80;99.90
18047;DHT22;9148;51.454;13.862;2023-08-06T13:30:16;18.80;99.90
18047;DHT22;9148;51.454;13.862;2023-08-06T13:32:43;18.80;99.90
18047;DHT22;9148;51.454;13.862;2023-08-06T13:35:10;18.80;99.90
18047;DHT22;9148;51.454;13.862;2023-08-06T13:37:35;18.80;99.90
18047;DHT22;9148;51.454;13.862;2023-08-06T13:40:01;18.80;99.90
18047;DHT22;9148;51.454;13.862;2023-08-06T13:42:27;18.80;99.90
18047;DHT22;9148;51.454;13.862;2023-08-06T13:44:54;18.80;99.90
18047;DHT22;9148;51.454;13.862;2023-08-06T13:47:37;18.80;99.90
18047;DHT22;9148;51.454;13.862;2023-08-06T13:50:03;18.90;99.90
18047;DHT22;9148;51.454;13.862;2023-08-06T13:52:29;18.90;99.90
18047;DHT22;9148;51.454;13.862;2023-08-06T13:54:54;18.90;99.90
18047;DHT22;9148;51.454;13.862;2023-08-06T13:57:20;18.90;99.90
18047;DHT22;9148;51.454;13.862;2023-08-06T13:59:45;18.90;99.90
18047;DHT22;9148;51.454;13.862;2023-08-06T14:02:11;19.00;99.90
18047;DHT22;9148;51.454;13.862;2023-08-06T14:04:37;19.00;99.90
18047;DHT22;9148;51.454;13.862;2023-08-06T14:07:03;19.00;99.90
18047;DHT22;9148;51.454;13.862;2023-08-06T14:09:29;19.00;99.90
18047;DHT22;9148;51.454;13.862;2023-08-06T14:11:55;18.90;99.90
18047;DHT22;9148;51.454;13.862;2023-08-06T14:14:21;18.90;99.90
18047;DHT22;9148;51.454;13.862;2023-08-06T14:16:54;18.90;99.90
18047;DHT22;9148;51.454;13.862;2023-08-06T14:19:20;18.90;99.90
18047;DHT22;9148;51.454;13.862;2023-08-06T14:21:46;18.90;99.90
18047;DHT22;9148;51.454;13.862;2023-08-06T14:24:11;18.90;99.90
18047;DHT22;9148;51.454;13.862;2023-08-06T14:26:38;18.90;99.90
18047;DHT22;9148;51.454;13.862;2023-08-06T14:29:03;18.90;99.90
18047;DHT22;9148;51.454;13.862;2023-08-06T14:31:29;18.90;99.90
18047;DHT22;9148;51.454;13.862;2023-08-06T14:33:55;18.90;99.90
18047;DHT22;9148;51.454;13.862;2023-08-06T14:36:21;18.80;99.90
18047;DHT22;9148;51.454;13.862;2023-08-06T14:38:47;18.70;99.90
18047;DHT22;9148;51.454;13.862;2023-08-06T14:41:13;18.50;99.90
18047;DHT22;9148;51.454;13.862;2023-08-06T14:43:38;18.40;99.90
18047;DHT22;9148;51.454;13.862;2023-08-06T14:46:04;18.20;99.90
18047;DHT22;9148;51.454;13.862;2023-08-06T14:48:33;18.00;99.90
18047;DHT22;9148;51.454;13.862;2023-08-06T14:50:58;17.80;99.90
18047;DHT22;9148;51.454;13.862;2023-08-06T14:53:24;17.70;99.90
18047;DHT22;9148;51.454;13.862;2023-08-06T14:55:50;17.70;99.90
18047;DHT22;9148;51.454;13.862;2023-08-06T14:58:15;17.60;99.90
18047;DHT22;9148;51.454;13.862;2023-08-06T15:00:41;17.60;99.90
18047;DHT22;9148;51.454;13.862;2023-08-06T15:03:07;17.60;99.90
18047;DHT22;9148;51.454;13.862;2023-08-06T15:05:33;17.60;99.90
18047;DHT22;9148;51.454;13.862;2023-08-06T15:07:59;17.60;99.90
18047;DHT22;9148;51.454;13.862;2023-08-06T15:10:25;17.60;99.90
18047;DHT22;9148;51.454;13.862;2023-08-06T15:12:50;17.70;99.90
18047;DHT22;9148;51.454;13.862;2023-08-06T15:15:16;17.70;99.90
18047;DHT22;9148;51.454;13.862;2023-08-06T15:17:42;17.70;99.90
18047;DHT22;9148;51.454;13.862;2023-08-06T15:20:08;17.70;99.90
18047;DHT22;9148;51.454;13.862;2023-08-06T15:22:34;17.70;99.90
18047;DHT22;9148;51.454;13.862;2023-08-06T15:25:00;17.70;99.90
18047;DHT22;9148;51.454;13.862;2023-08-06T15:27:34;17.70;99.90
18047;DHT22;9148;51.454;13.862;2023-08-06T15:30:00;17.70;99.90
18047;DHT22;9148;51.454;13.862;2023-08-06T15:32:27;17.70;99.90
18047;DHT22;9148;51.454;13.862;2023-08-06T15:34:53;17.70;99.90